createdAt,value
2023-04-27T00:01:26.459Z,8.60
2023-04-27T00:03:53.654Z,11.70
2023-04-27T00:06:21.097Z,16.13
2023-04-27T00:08:48.215Z,11.27
2023-04-27T00:11:15.428Z,7.47
2023-04-27T00:13:42.669Z,9.15
2023-04-27T00:16:09.758Z,10.55
2023-04-27T00:18:37.221Z,11.07
2023-04-27T00:21:04.545Z,10.88
2023-04-27T00:23:31.636Z,13.30
2023-04-27T00:25:58.974Z,10.00
2023-04-27T00:28:26.435Z,11.68
2023-04-27T00:30:54.923Z,9.55
2023-04-27T00:33:22.160Z,13.75
2023-04-27T00:35:49.245Z,12.25
2023-04-27T00:38:16.606Z,12.55
2023-04-27T00:40:43.689Z,10.40
2023-04-27T00:43:10.964Z,10.68
2023-04-27T00:45:43.689Z,7.47
2023-04-27T00:48:11.934Z,6.32
2023-04-27T00:50:39.814Z,9.60
2023-04-27T00:53:08.117Z,9.52
2023-04-27T00:55:35.352Z,11.73
2023-04-27T00:58:03.076Z,18.80
2023-04-27T01:00:30.534Z,8.20
2023-04-27T01:02:57.817Z,8.38
2023-04-27T01:05:26.576Z,7.43
2023-04-27T01:07:53.889Z,9.70
2023-04-27T01:10:21.094Z,10.05
2023-04-27T01:12:48.391Z,12.05
2023-04-27T01:15:15.520Z,8.88
2023-04-27T01:17:43.522Z,13.38
2023-04-27T01:20:11.538Z,10.02
2023-04-27T01:22:39.311Z,11.30
2023-04-27T01:25:08.230Z,12.98
2023-04-27T01:27:35.448Z,10.38
2023-04-27T01:30:04.266Z,9.48
2023-04-27T01:32:31.338Z,10.18
2023-04-27T01:34:58.487Z,11.82
2023-04-27T01:37:27.262Z,14.07
2023-04-27T01:39:54.504Z,9.13
2023-04-27T01:42:21.570Z,9.95
2023-04-27T01:44:49.282Z,12.25
2023-04-27T01:47:17.613Z,11.48
2023-04-27T01:49:44.955Z,7.30
2023-04-27T01:52:12.133Z,10.52
2023-04-27T01:54:39.365Z,9.25
2023-04-27T01:57:06.933Z,11.50
2023-04-27T01:59:34.463Z,9.68
2023-04-27T02:02:02.147Z,10.15
2023-04-27T02:04:30.320Z,11.65
2023-04-27T02:06:58.471Z,12.02
2023-04-27T02:09:25.609Z,9.30
2023-04-27T02:11:52.846Z,14.05
2023-04-27T02:14:20.012Z,15.40
2023-04-27T02:16:47.439Z,6.45
2023-04-27T02:19:14.926Z,7.72
2023-04-27T02:21:42.265Z,12.88
2023-04-27T02:24:10.650Z,9.73
2023-04-27T02:26:38.317Z,11.90
2023-04-27T02:29:05.496Z,12.20
2023-04-27T02:31:33.172Z,10.27
2023-04-27T02:34:00.978Z,6.90
2023-04-27T02:36:28.237Z,13.20
2023-04-27T02:38:55.719Z,10.20
2023-04-27T02:41:23.094Z,9.00
2023-04-27T02:43:53.654Z,10.35
2023-04-27T02:46:20.794Z,15.50
2023-04-27T02:48:47.870Z,10.63
2023-04-27T02:51:14.981Z,9.85
2023-04-27T02:53:42.277Z,10.35
2023-04-27T02:56:09.375Z,8.60
2023-04-27T02:58:36.780Z,7.70
2023-04-27T03:01:05.067Z,11.73
2023-04-27T03:03:32.433Z,13.18
2023-04-27T03:05:59.726Z,16.27
2023-04-27T03:08:26.975Z,11.20
2023-04-27T03:10:54.095Z,9.38
2023-04-27T03:13:22.750Z,10.45
2023-04-27T03:15:49.917Z,9.13
2023-04-27T03:18:16.993Z,14.38
2023-04-27T03:20:44.107Z,11.40
2023-04-27T03:23:12.390Z,11.98
2023-04-27T03:25:39.522Z,15.43
2023-04-27T03:28:08.710Z,11.10
2023-04-27T03:30:35.816Z,24.52
2023-04-27T03:33:02.985Z,13.48
2023-04-27T03:35:30.085Z,10.40
2023-04-27T03:37:57.438Z,11.95
2023-04-27T03:40:24.577Z,22.60
2023-04-27T03:42:51.820Z,15.73
2023-04-27T03:45:19.622Z,9.55
2023-04-27T03:47:46.871Z,15.88
2023-04-27T03:50:15.177Z,7.40
2023-04-27T03:52:42.456Z,7.68
2023-04-27T03:55:11.067Z,9.57
2023-04-27T03:57:41.865Z,17.65
2023-04-27T04:00:13.288Z,9.07
2023-04-27T04:02:41.562Z,13.77
2023-04-27T04:05:09.623Z,12.52
2023-04-27T04:07:36.950Z,11.07
2023-04-27T04:10:04.862Z,14.20
2023-04-27T04:12:31.954Z,11.93
2023-04-27T04:15:00.387Z,8.60
2023-04-27T04:17:27.981Z,11.68
2023-04-27T04:19:55.079Z,15.35
2023-04-27T04:22:22.929Z,7.28
2023-04-27T04:24:50.068Z,7.25
2023-04-27T04:27:17.355Z,9.32
2023-04-27T04:29:44.562Z,9.48
2023-04-27T04:32:12.591Z,13.15
2023-04-27T04:34:39.696Z,11.50
2023-04-27T04:37:06.953Z,17.20
2023-04-27T04:39:34.258Z,10.48
2023-04-27T04:42:04.374Z,14.80
2023-04-27T04:44:33.556Z,19.08
2023-04-27T04:47:01.278Z,14.57
2023-04-27T04:49:28.598Z,18.75
2023-04-27T04:51:55.881Z,13.18
2023-04-27T04:54:22.987Z,12.60
2023-04-27T04:56:50.135Z,19.30
2023-04-27T04:59:17.848Z,24.60
2023-04-27T05:01:47.929Z,16.63
2023-04-27T05:04:15.443Z,21.15
2023-04-27T05:06:42.766Z,15.90
2023-04-27T05:09:09.990Z,20.60
2023-04-27T05:11:37.229Z,17.02
2023-04-27T05:14:04.304Z,25.75
2023-04-27T05:16:31.519Z,14.63
2023-04-27T05:18:58.784Z,24.27
2023-04-27T05:21:26.021Z,14.80
2023-04-27T05:23:53.122Z,15.23
2023-04-27T05:26:20.339Z,15.00
2023-04-27T05:28:47.580Z,13.60
2023-04-27T05:31:14.733Z,20.50
2023-04-27T05:33:41.841Z,21.25
2023-04-27T05:36:09.683Z,17.58
2023-04-27T05:38:40.615Z,13.52
2023-04-27T05:41:07.867Z,14.75
2023-04-27T05:43:39.085Z,18.50
2023-04-27T05:46:06.425Z,20.10
2023-04-27T05:48:37.530Z,18.05
2023-04-27T05:51:10.137Z,23.05
2023-04-27T05:53:42.422Z,24.55
2023-04-27T05:56:16.224Z,19.63
2023-04-27T05:58:43.384Z,26.88
2023-04-27T06:01:13.501Z,16.10
2023-04-27T06:03:40.878Z,19.50
2023-04-27T06:06:08.303Z,20.02
2023-04-27T06:08:37.776Z,16.55
2023-04-27T06:11:04.998Z,21.73
2023-04-27T06:13:33.401Z,14.93
2023-04-27T06:16:01.816Z,14.82
2023-04-27T06:18:29.214Z,18.02
2023-04-27T06:21:01.666Z,21.30
2023-04-27T06:23:29.023Z,20.17
2023-04-27T06:25:56.334Z,12.07
2023-04-27T06:28:23.656Z,16.45
2023-04-27T06:30:50.818Z,17.70
2023-04-27T06:33:18.158Z,11.05
2023-04-27T06:35:47.441Z,6.55
2023-04-27T06:38:14.832Z,11.13
2023-04-27T06:40:42.150Z,10.60
2023-04-27T06:43:09.297Z,16.40
2023-04-27T06:45:36.404Z,9.68
2023-04-27T06:48:03.708Z,13.13
2023-04-27T06:50:31.079Z,9.73
2023-04-27T06:52:58.208Z,10.38
2023-04-27T06:55:25.409Z,5.50
2023-04-27T06:57:52.608Z,10.63
2023-04-27T07:00:20.280Z,12.80
2023-04-27T07:02:47.541Z,7.55
2023-04-27T07:05:14.652Z,8.35
2023-04-27T07:07:41.959Z,7.65
2023-04-27T07:10:09.762Z,14.65
2023-04-27T07:12:38.146Z,14.05
2023-04-27T07:15:06.810Z,13.73
2023-04-27T07:17:34.198Z,11.90
2023-04-27T07:20:06.483Z,10.30
2023-04-27T07:22:33.883Z,14.23
2023-04-27T07:25:01.307Z,9.00
2023-04-27T07:27:28.417Z,9.05
2023-04-27T07:29:55.524Z,7.18
2023-04-27T07:32:23.024Z,6.55
2023-04-27T07:34:54.180Z,10.38
2023-04-27T07:37:22.977Z,12.35
2023-04-27T07:39:52.442Z,9.02
2023-04-27T07:42:22.658Z,11.13
2023-04-27T07:44:50.802Z,9.20
2023-04-27T07:47:19.128Z,8.00
2023-04-27T07:49:49.320Z,8.15
2023-04-27T07:52:16.816Z,4.40
2023-04-27T07:54:43.918Z,10.88
2023-04-27T07:57:12.063Z,11.25
2023-04-27T07:59:39.774Z,4.75
2023-04-27T08:02:17.843Z,6.57
2023-04-27T08:04:47.296Z,13.75
2023-04-27T08:07:17.628Z,14.05
2023-04-27T08:09:45.207Z,6.13
2023-04-27T08:12:12.431Z,9.93
2023-04-27T08:14:39.510Z,9.85
2023-04-27T08:17:07.316Z,11.40
2023-04-27T08:19:34.736Z,10.90
2023-04-27T08:22:01.833Z,7.35
2023-04-27T08:24:28.909Z,11.13
2023-04-27T08:26:56.754Z,9.55
2023-04-27T08:29:28.632Z,6.80
2023-04-27T08:32:00.387Z,8.32
2023-04-27T08:34:28.989Z,9.48
2023-04-27T08:36:56.928Z,7.88
2023-04-27T08:39:24.805Z,13.23
2023-04-27T08:41:51.979Z,13.32
2023-04-27T08:44:19.307Z,15.40
2023-04-27T08:46:46.684Z,8.35
2023-04-27T08:49:16.511Z,11.38
2023-04-27T08:51:44.765Z,8.02
2023-04-27T08:54:11.974Z,9.15
2023-04-27T08:56:39.570Z,8.82
2023-04-27T08:59:15.530Z,15.90
2023-04-27T09:01:50.286Z,17.02
2023-04-27T09:04:20.580Z,10.25
2023-04-27T09:06:49.353Z,9.85
2023-04-27T09:09:24.031Z,8.88
2023-04-27T09:11:51.742Z,6.10
2023-04-27T09:14:21.675Z,18.17
2023-04-27T09:16:59.735Z,7.82
2023-04-27T09:19:29.005Z,12.43
2023-04-27T09:22:11.505Z,19.92
2023-04-27T09:24:39.069Z,9.80
2023-04-27T09:27:07.650Z,10.05
2023-04-27T09:29:36.633Z,8.35
2023-04-27T09:32:17.856Z,5.85
2023-04-27T09:34:45.461Z,5.00
2023-04-27T09:37:13.089Z,9.00
2023-04-27T09:39:41.846Z,7.13
2023-04-27T09:42:09.579Z,9.43
2023-04-27T09:44:36.852Z,13.05
2023-04-27T09:47:05.179Z,9.00
2023-04-27T09:49:34.994Z,5.63
2023-04-27T09:52:02.168Z,6.93
2023-04-27T09:54:32.588Z,6.88
2023-04-27T09:56:59.597Z,7.82
2023-04-27T09:59:45.608Z,9.10
2023-04-27T10:02:24.782Z,5.88
2023-04-27T10:05:01.624Z,8.75
2023-04-27T10:07:29.535Z,9.77
2023-04-27T10:10:02.189Z,11.20
2023-04-27T10:12:36.927Z,15.18
2023-04-27T10:15:15.148Z,7.07
2023-04-27T10:17:50.469Z,8.10
2023-04-27T10:20:18.077Z,18.25
2023-04-27T10:22:45.145Z,8.35
2023-04-27T10:25:19.596Z,8.60
2023-04-27T10:27:52.596Z,8.27
2023-04-27T10:30:21.441Z,6.80
2023-04-27T10:32:59.320Z,5.72
2023-04-27T10:35:35.017Z,8.77
2023-04-27T10:38:10.316Z,7.03
2023-04-27T10:40:38.704Z,6.65
2023-04-27T10:43:10.770Z,7.93
2023-04-27T10:45:38.338Z,7.82
2023-04-27T10:48:06.569Z,13.07
2023-04-27T10:50:34.366Z,7.60
2023-04-27T10:53:03.887Z,10.68
2023-04-27T10:55:31.974Z,11.25
2023-04-27T10:57:59.505Z,8.00
2023-04-27T11:00:41.790Z,7.03
2023-04-27T11:03:18.542Z,8.02
2023-04-27T11:05:48.398Z,13.40
2023-04-27T11:08:21.344Z,8.02
2023-04-27T11:10:52.378Z,6.13
2023-04-27T11:13:21.751Z,6.50
2023-04-27T11:15:50.197Z,7.85
2023-04-27T11:18:19.566Z,8.57
2023-04-27T11:20:52.712Z,9.35
2023-04-27T11:23:33.569Z,8.45
2023-04-27T11:26:29.321Z,6.38
2023-04-27T11:29:09.556Z,8.32
2023-04-27T11:31:47.853Z,9.05
2023-04-27T11:34:17.397Z,9.00
2023-04-27T11:36:44.802Z,8.30
2023-04-27T11:39:22.238Z,10.55
2023-04-27T11:41:49.473Z,8.07
2023-04-27T11:44:16.554Z,7.57
2023-04-27T11:46:45.226Z,11.45
2023-04-27T11:49:13.146Z,8.90
2023-04-27T11:51:40.788Z,7.80
2023-04-27T11:54:08.338Z,8.32
2023-04-27T11:56:40.424Z,16.98
2023-04-27T11:59:19.583Z,8.20
2023-04-27T12:01:47.176Z,14.48
2023-04-27T12:04:14.606Z,6.82
2023-04-27T12:06:42.435Z,8.20
2023-04-27T12:09:09.686Z,6.88
2023-04-27T12:11:36.917Z,5.93
2023-04-27T12:14:04.285Z,8.27
2023-04-27T12:16:31.594Z,5.40
2023-04-27T12:18:58.786Z,8.65
2023-04-27T12:21:25.936Z,3.40
2023-04-27T12:23:53.188Z,6.57
2023-04-27T12:26:20.803Z,6.50
2023-04-27T12:28:48.042Z,11.02
2023-04-27T12:31:17.805Z,5.70
2023-04-27T12:33:45.416Z,13.93
2023-04-27T12:36:12.765Z,10.98
2023-04-27T12:38:39.952Z,6.07
2023-04-27T12:41:07.422Z,6.47
2023-04-27T12:43:36.632Z,10.90
2023-04-27T12:46:04.167Z,7.80
2023-04-27T12:48:32.261Z,15.18
2023-04-27T12:50:59.452Z,10.48
2023-04-27T12:53:27.061Z,6.47
2023-04-27T12:55:54.286Z,6.35
2023-04-27T12:58:21.982Z,7.78
2023-04-27T13:00:49.118Z,9.05
2023-04-27T13:03:16.617Z,10.40
2023-04-27T13:05:44.787Z,9.88
2023-04-27T13:08:12.271Z,7.55
2023-04-27T13:10:39.460Z,10.77
2023-04-27T13:13:07.282Z,8.43
2023-04-27T13:15:34.441Z,6.93
2023-04-27T13:18:05.550Z,6.32
2023-04-27T13:20:32.983Z,12.10
2023-04-27T13:23:00.162Z,6.70
2023-04-27T13:25:27.500Z,6.47
2023-04-27T13:27:54.855Z,44.85
2023-04-27T13:30:21.948Z,7.30
2023-04-27T13:32:49.326Z,6.95
2023-04-27T13:35:16.676Z,6.60
2023-04-27T13:37:43.804Z,8.75
2023-04-27T13:40:11.508Z,4.20
2023-04-27T13:42:40.130Z,7.78
2023-04-27T13:45:07.863Z,8.43
2023-04-27T13:47:37.538Z,15.07
2023-04-27T13:50:12.747Z,8.60
2023-04-27T13:52:41.207Z,11.02
2023-04-27T13:55:10.322Z,9.05
2023-04-27T13:57:38.270Z,10.23
2023-04-27T14:00:08.393Z,3.25
2023-04-27T14:02:36.595Z,5.50
2023-04-27T14:05:05.406Z,6.72
2023-04-27T14:07:34.575Z,8.07
2023-04-27T14:10:03.945Z,6.68
2023-04-27T14:12:32.591Z,5.95
2023-04-27T14:14:59.938Z,5.25
2023-04-27T14:17:27.246Z,7.03
2023-04-27T14:19:54.369Z,5.75
2023-04-27T14:22:21.518Z,9.73
2023-04-27T14:24:48.694Z,11.55
2023-04-27T14:27:17.344Z,10.05
2023-04-27T14:29:44.527Z,12.75
2023-04-27T14:32:11.804Z,7.07
2023-04-27T14:34:39.047Z,14.73
2023-04-27T14:37:06.236Z,8.98
2023-04-27T14:39:33.455Z,11.73
2023-04-27T14:42:00.634Z,11.65
2023-04-27T14:44:27.804Z,8.43
2023-04-27T14:46:55.241Z,6.35
2023-04-27T14:49:22.716Z,7.80
2023-04-27T14:51:50.496Z,5.65
2023-04-27T14:54:17.625Z,6.63
2023-04-27T14:56:46.700Z,7.32
2023-04-27T14:59:14.100Z,5.90
2023-04-27T15:01:41.368Z,5.90
2023-04-27T15:04:11.446Z,5.88
2023-04-27T15:06:38.706Z,8.40
2023-04-27T15:09:06.471Z,17.25
2023-04-27T15:11:33.805Z,6.03
2023-04-27T15:14:00.952Z,6.45
2023-04-27T15:16:28.208Z,4.03
2023-04-27T15:18:55.435Z,4.68
2023-04-27T15:21:22.715Z,6.80
2023-04-27T15:23:49.916Z,13.18
2023-04-27T15:26:17.124Z,10.82
2023-04-27T15:28:44.480Z,5.80
2023-04-27T15:31:11.607Z,16.95
2023-04-27T15:33:38.762Z,14.88
2023-04-27T15:36:06.195Z,10.82
2023-04-27T15:38:33.344Z,7.30
2023-04-27T15:41:00.595Z,12.70
2023-04-27T15:43:27.783Z,4.40
2023-04-27T15:45:55.403Z,13.02
2023-04-27T15:48:22.489Z,7.90
2023-04-27T15:50:49.584Z,11.77
2023-04-27T15:53:16.812Z,13.15
2023-04-27T15:55:44.088Z,9.38
2023-04-27T15:58:11.230Z,11.70
2023-04-27T16:00:38.657Z,9.40
2023-04-27T16:03:10.121Z,9.77
2023-04-27T16:05:38.393Z,6.72
2023-04-27T16:08:06.355Z,4.25
2023-04-27T16:10:33.947Z,13.55
2023-04-27T16:13:01.625Z,9.30
2023-04-27T16:15:28.757Z,5.15
2023-04-27T16:17:56.943Z,4.38
2023-04-27T16:20:27.026Z,4.03
2023-04-27T16:22:55.320Z,5.28
2023-04-27T16:25:24.207Z,3.45
2023-04-27T16:27:53.744Z,8.73
2023-04-27T16:30:21.642Z,7.38
2023-04-27T16:32:50.682Z,6.68
2023-04-27T16:35:18.929Z,5.65
2023-04-27T16:37:47.489Z,6.85
2023-04-27T16:40:14.646Z,5.70
2023-04-27T16:42:42.276Z,7.43
2023-04-27T16:45:10.872Z,5.28
2023-04-27T16:47:38.876Z,8.85
2023-04-27T16:50:07.109Z,8.35
2023-04-27T16:52:34.759Z,9.35
2023-04-27T16:55:02.010Z,8.68
2023-04-27T16:57:29.998Z,8.82
2023-04-27T16:59:57.173Z,9.32
2023-04-27T17:02:25.782Z,9.43
2023-04-27T17:04:55.174Z,12.15
2023-04-27T17:07:22.810Z,13.70
2023-04-27T17:09:49.973Z,8.13
2023-04-27T17:12:17.975Z,12.15
2023-04-27T17:14:45.128Z,14.57
2023-04-27T17:17:12.892Z,9.25
2023-04-27T17:19:40.008Z,10.80
2023-04-27T17:22:11.039Z,11.00
2023-04-27T17:24:38.560Z,12.95
2023-04-27T17:27:05.867Z,10.77
2023-04-27T17:29:33.332Z,14.50
2023-04-27T17:32:00.430Z,9.70
2023-04-27T17:34:27.925Z,10.10
2023-04-27T17:36:55.052Z,12.15
2023-04-27T17:39:23.396Z,9.10
2023-04-27T17:41:50.448Z,10.18
2023-04-27T17:44:17.916Z,8.85
2023-04-27T17:46:50.220Z,9.32
2023-04-27T17:49:19.047Z,8.27
2023-04-27T17:51:47.539Z,8.90
2023-04-27T17:54:16.092Z,13.40
2023-04-27T17:56:44.657Z,9.60
2023-04-27T17:59:12.395Z,10.25
2023-04-27T18:01:39.878Z,9.32
2023-04-27T18:04:07.528Z,11.15
2023-04-27T18:06:34.730Z,14.00
2023-04-27T18:09:01.956Z,9.30
2023-04-27T18:11:29.775Z,13.50
2023-04-27T18:13:58.440Z,13.77
2023-04-27T18:16:25.920Z,6.82
2023-04-27T18:18:53.066Z,9.00
2023-04-27T18:21:20.251Z,7.40
2023-04-27T18:23:47.348Z,14.05
2023-04-27T18:26:14.675Z,10.50
2023-04-27T18:28:42.217Z,16.67
2023-04-27T18:31:16.692Z,16.77
2023-04-27T18:33:47.377Z,10.52
2023-04-27T18:36:14.569Z,13.00
2023-04-27T18:38:41.787Z,12.25
2023-04-27T18:41:08.940Z,16.17
2023-04-27T18:43:38.736Z,21.58
2023-04-27T18:46:06.326Z,9.55
2023-04-27T18:48:33.662Z,11.90
2023-04-27T18:51:01.001Z,12.63
2023-04-27T18:53:28.601Z,14.73
2023-04-27T18:55:55.996Z,11.63
2023-04-27T18:58:23.480Z,10.70
2023-04-27T19:00:50.776Z,16.90
2023-04-27T19:03:18.106Z,14.85
2023-04-27T19:05:45.474Z,14.15
2023-04-27T19:08:12.948Z,14.27
2023-04-27T19:10:43.065Z,24.92
2023-04-27T19:13:10.448Z,12.05
2023-04-27T19:15:37.602Z,16.00
2023-04-27T19:18:10.481Z,20.38
2023-04-27T19:20:39.640Z,18.95
2023-04-27T19:23:08.138Z,15.52
2023-04-27T19:25:35.618Z,15.27
2023-04-27T19:28:02.724Z,19.27
2023-04-27T19:30:29.930Z,8.93
2023-04-27T19:32:57.189Z,9.88
2023-04-27T19:35:24.532Z,18.58
2023-04-27T19:37:51.685Z,28.55
2023-04-27T19:40:19.192Z,21.15
2023-04-27T19:42:46.304Z,25.85
2023-04-27T19:45:13.451Z,22.60
2023-04-27T19:47:40.611Z,22.25
2023-04-27T19:50:07.956Z,24.77
2023-04-27T19:52:35.092Z,32.05
2023-04-27T19:55:03.097Z,23.70
2023-04-27T19:57:30.709Z,26.65
2023-04-27T19:59:58.152Z,19.40
2023-04-27T20:02:25.526Z,14.23
2023-04-27T20:04:53.091Z,35.75
2023-04-27T20:07:20.610Z,43.45
2023-04-27T20:09:47.872Z,24.30
2023-04-27T20:12:34.822Z,22.75
2023-04-27T20:15:02.846Z,19.45
2023-04-27T20:17:31.746Z,19.90
2023-04-27T20:19:58.904Z,23.63
2023-04-27T20:22:26.324Z,24.80
2023-04-27T20:24:54.404Z,29.95
2023-04-27T20:27:21.626Z,25.70
2023-04-27T20:29:48.833Z,31.45
2023-04-27T20:32:16.577Z,29.73
2023-04-27T20:34:43.674Z,65.55
2023-04-27T20:37:10.894Z,61.90
2023-04-27T20:39:38.253Z,47.65
2023-04-27T20:42:06.135Z,39.00
2023-04-27T20:44:34.233Z,33.70
2023-04-27T20:47:01.444Z,23.00
2023-04-27T20:49:35.095Z,24.10
2023-04-27T20:52:02.829Z,58.95
2023-04-27T20:54:33.037Z,21.58
2023-04-27T20:57:03.352Z,40.17
2023-04-27T20:59:30.676Z,38.33
2023-04-27T21:01:57.988Z,32.60
2023-04-27T21:04:25.284Z,31.98
2023-04-27T21:06:55.558Z,20.15
2023-04-27T21:09:23.543Z,24.85
2023-04-27T21:11:51.727Z,28.67
2023-04-27T21:14:22.117Z,30.85
2023-04-27T21:16:49.793Z,22.48
2023-04-27T21:19:17.309Z,15.85
2023-04-27T21:21:45.674Z,12.00
2023-04-27T21:24:12.804Z,15.27
2023-04-27T21:26:43.276Z,12.88
2023-04-27T21:29:10.771Z,24.13
2023-04-27T21:31:38.990Z,25.17
2023-04-27T21:34:06.527Z,21.70
2023-04-27T21:36:34.320Z,18.35
2023-04-27T21:39:01.652Z,16.75
2023-04-27T21:41:29.772Z,29.63
2023-04-27T21:43:57.081Z,20.45
2023-04-27T21:46:24.549Z,18.00
2023-04-27T21:48:52.352Z,19.10
2023-04-27T21:51:19.786Z,19.60
2023-04-27T21:53:47.023Z,19.40
2023-04-27T21:56:15.796Z,15.68
2023-04-27T21:58:43.062Z,16.98
2023-04-27T22:01:11.769Z,23.45
2023-04-27T22:03:39.909Z,23.27
2023-04-27T22:06:07.840Z,19.48
2023-04-27T22:08:35.512Z,16.17
2023-04-27T22:11:03.176Z,13.88
2023-04-27T22:13:30.534Z,24.42
2023-04-27T22:15:58.097Z,22.05
2023-04-27T22:18:25.194Z,24.73
2023-04-27T22:20:55.046Z,19.48
2023-04-27T22:23:22.178Z,20.33
2023-04-27T22:25:50.158Z,27.05
2023-04-27T22:28:17.444Z,23.27
2023-04-27T22:30:44.913Z,35.92
2023-04-27T22:33:12.252Z,24.08
2023-04-27T22:35:40.548Z,23.45
2023-04-27T22:38:07.777Z,32.22
2023-04-27T22:40:36.047Z,28.35
2023-04-27T22:43:03.944Z,22.10
2023-04-27T22:45:32.526Z,48.45
2023-04-27T22:47:59.669Z,42.17
2023-04-27T22:50:28.282Z,24.90
2023-04-27T22:52:55.363Z,28.80
2023-04-27T22:55:22.994Z,27.65
2023-04-27T22:57:50.609Z,19.33
2023-04-27T23:00:18.213Z,32.35
2023-04-27T23:02:45.770Z,18.80
2023-04-27T23:05:13.320Z,20.77
2023-04-27T23:07:44.180Z,17.55
2023-04-27T23:10:13.699Z,28.17
2023-04-27T23:12:40.862Z,22.63
2023-04-27T23:15:08.697Z,31.67
2023-04-27T23:17:36.567Z,34.92
2023-04-27T23:20:24.559Z,30.67
2023-04-27T23:22:56.032Z,29.65
2023-04-27T23:25:23.263Z,27.77
2023-04-27T23:27:52.571Z,33.17
2023-04-27T23:30:21.073Z,25.60
2023-04-27T23:32:48.504Z,27.58
2023-04-27T23:35:15.724Z,30.35
2023-04-27T23:37:43.619Z,29.67
2023-04-27T23:40:10.994Z,28.70
2023-04-27T23:42:38.717Z,20.13
2023-04-27T23:45:06.898Z,22.33
2023-04-27T23:47:34.466Z,23.65
2023-04-27T23:50:02.552Z,27.10
2023-04-27T23:52:30.665Z,20.42
2023-04-27T23:54:58.438Z,27.10
2023-04-27T23:57:25.854Z,22.23
2023-04-27T23:59:53.380Z,20.27
